sensor_id;sensor_type;location;lat;lon;timestamp;temperature;humidity
14006;DHT22;7078;51.542;7.314;2022-10-26T00:01:18;10.90;99.90
14006;DHT22;7078;51.542;7.314;2022-10-26T00:03:45;10.90;99.90
14006;DHT22;7078;51.542;7.314;2022-10-26T00:06:16;11.00;99.90
14006;DHT22;7078;51.542;7.314;2022-10-26T00:08:42;11.00;99.90
14006;DHT22;7078;51.542;7.314;2022-10-26T00:11:09;11.00;99.90
14006;DHT22;7078;51.542;7.314;2022-10-26T00:13:36;11.00;99.90
14006;DHT22;7078;51.542;7.314;2022-10-26T00:16:07;11.00;99.90
14006;DHT22;7078;51.542;7.314;2022-10-26T00:18:33;11.10;99.90
14006;DHT22;7078;51.542;7.314;2022-10-26T00:21:02;11.10;99.90
14006;DHT22;7078;51.542;7.314;2022-10-26T00:23:28;11.10;99.90
14006;DHT22;7078;51.542;7.314;2022-10-26T00:25:55;11.10;99.90
14006;DHT22;7078;51.542;7.314;2022-10-26T00:28:21;11.10;99.90
14006;DHT22;7078;51.542;7.314;2022-10-26T00:30:46;11.10;99.90
14006;DHT22;7078;51.542;7.314;2022-10-26T00:33:12;11.10;99.90
14006;DHT22;7078;51.542;7.314;2022-10-26T00:35:38;11.10;99.90
14006;DHT22;7078;51.542;7.314;2022-10-26T00:38:03;11.10;99.90
14006;DHT22;7078;51.542;7.314;2022-10-26T00:40:29;11.10;99.90
14006;DHT22;7078;51.542;7.314;2022-10-26T00:42:55;11.10;99.90
14006;DHT22;7078;51.542;7.314;2022-10-26T00:45:25;11.10;99.90
14006;DHT22;7078;51.542;7.314;2022-10-26T00:47:57;11.10;99.90
14006;DHT22;7078;51.542;7.314;2022-10-26T00:50:31;11.10;99.90
14006;DHT22;7078;51.542;7.314;2022-10-26T00:52:58;11.10;99.90
14006;DHT22;7078;51.542;7.314;2022-10-26T00:55:29;11.20;99.90
14006;DHT22;7078;51.542;7.314;2022-10-26T00:57:56;11.20;99.90
14006;DHT22;7078;51.542;7.314;2022-10-26T01:00:23;11.20;99.90
14006;DHT22;7078;51.542;7.314;2022-10-26T01:02:49;11.20;99.90
14006;DHT22;7078;51.542;7.314;2022-10-26T01:05:17;11.20;99.90
14006;DHT22;7078;51.542;7.314;2022-10-26T01:07:43;11.30;99.90
14006;DHT22;7078;51.542;7.314;2022-10-26T01:10:09;11.30;99.90
14006;DHT22;7078;51.542;7.314;2022-10-26T01:12:36;11.30;99.90
14006;DHT22;7078;51.542;7.314;2022-10-26T01:15:02;11.30;99.90
14006;DHT22;7078;51.542;7.314;2022-10-26T01:26:15;11.40;99.90
14006;DHT22;7078;51.542;7.314;2022-10-26T01:28:57;11.40;99.90
14006;DHT22;7078;51.542;7.314;2022-10-26T01:31:36;11.40;99.90
14006;DHT22;7078;51.542;7.314;2022-10-26T01:34:33;11.40;99.90
14006;DHT22;7078;51.542;7.314;2022-10-26T01:37:08;11.40;99.90
14006;DHT22;7078;51.542;7.314;2022-10-26T01:39:49;11.40;99.90
14006;DHT22;7078;51.542;7.314;2022-10-26T01:42:17;11.40;99.90
14006;DHT22;7078;51.542;7.314;2022-10-26T01:44:48;11.50;99.90
14006;DHT22;7078;51.542;7.314;2022-10-26T01:47:17;11.40;99.90
14006;DHT22;7078;51.542;7.314;2022-10-26T01:49:48;11.50;99.90
14006;DHT22;7078;51.542;7.314;2022-10-26T01:52:17;11.50;99.90
14006;DHT22;7078;51.542;7.314;2022-10-26T01:54:42;11.50;99.90
14006;DHT22;7078;51.542;7.314;2022-10-26T01:57:10;11.50;99.90
14006;DHT22;7078;51.542;7.314;2022-10-26T02:00:10;11.50;99.90
14006;DHT22;7078;51.542;7.314;2022-10-26T02:02:59;11.50;99.90
14006;DHT22;7078;51.542;7.314;2022-10-26T02:05:35;11.40;99.90
14006;DHT22;7078;51.542;7.314;2022-10-26T02:11:41;11.40;99.90
14006;DHT22;7078;51.542;7.314;2022-10-26T02:16:36;11.50;99.90
14006;DHT22;7078;51.542;7.314;2022-10-26T02:19:27;11.50;99.90
14006;DHT22;7078;51.542;7.314;2022-10-26T02:22:01;11.50;99.90
14006;DHT22;7078;51.542;7.314;2022-10-26T02:24:29;11.50;99.90
14006;DHT22;7078;51.542;7.314;2022-10-26T02:26:59;11.50;99.90
14006;DHT22;7078;51.542;7.314;2022-10-26T02:29:26;11.50;99.90
14006;DHT22;7078;51.542;7.314;2022-10-26T02:31:55;11.50;99.90
14006;DHT22;7078;51.542;7.314;2022-10-26T02:34:24;11.50;99.90
14006;DHT22;7078;51.542;7.314;2022-10-26T02:36:52;11.50;99.90
14006;DHT22;7078;51.542;7.314;2022-10-26T02:39:20;11.50;99.90
14006;DHT22;7078;51.542;7.314;2022-10-26T02:41:47;11.50;99.90
14006;DHT22;7078;51.542;7.314;2022-10-26T02:44:25;11.60;99.90
14006;DHT22;7078;51.542;7.314;2022-10-26T02:46:52;11.60;99.90
14006;DHT22;7078;51.542;7.314;2022-10-26T02:49:19;11.60;99.90
14006;DHT22;7078;51.542;7.314;2022-10-26T02:52:00;11.60;99.90
14006;DHT22;7078;51.542;7.314;2022-10-26T02:57:28;11.60;99.90
14006;DHT22;7078;51.542;7.314;2022-10-26T02:59:57;11.60;99.90
14006;DHT22;7078;51.542;7.314;2022-10-26T03:02:23;11.70;99.90
14006;DHT22;7078;51.542;7.314;2022-10-26T03:04:50;11.60;99.90
14006;DHT22;7078;51.542;7.314;2022-10-26T03:07:22;11.70;99.90
14006;DHT22;7078;51.542;7.314;2022-10-26T03:09:48;11.60;99.90
14006;DHT22;7078;51.542;7.314;2022-10-26T03:12:14;11.60;99.90
14006;DHT22;7078;51.542;7.314;2022-10-26T03:14:39;11.70;99.90
14006;DHT22;7078;51.542;7.314;2022-10-26T03:17:05;11.70;99.90
14006;DHT22;7078;51.542;7.314;2022-10-26T03:19:31;11.70;99.90
14006;DHT22;7078;51.542;7.314;2022-10-26T03:21:57;11.70;99.90
14006;DHT22;7078;51.542;7.314;2022-10-26T03:24:22;11.70;99.90
14006;DHT22;7078;51.542;7.314;2022-10-26T03:26:48;11.80;99.90
14006;DHT22;7078;51.542;7.314;2022-10-26T03:29:13;11.80;99.90
14006;DHT22;7078;51.542;7.314;2022-10-26T03:31:39;11.80;99.90
14006;DHT22;7078;51.542;7.314;2022-10-26T03:34:04;11.80;99.90
14006;DHT22;7078;51.542;7.314;2022-10-26T03:36:30;11.80;99.90
14006;DHT22;7078;51.542;7.314;2022-10-26T03:38:55;11.90;99.90
14006;DHT22;7078;51.542;7.314;2022-10-26T03:41:21;11.90;99.90
14006;DHT22;7078;51.542;7.314;2022-10-26T03:43:46;11.90;99.90
14006;DHT22;7078;51.542;7.314;2022-10-26T03:46:13;11.90;99.90
14006;DHT22;7078;51.542;7.314;2022-10-26T03:48:38;11.90;99.90
14006;DHT22;7078;51.542;7.314;2022-10-26T03:51:04;11.90;99.90
14006;DHT22;7078;51.542;7.314;2022-10-26T03:53:29;12.00;99.90
14006;DHT22;7078;51.542;7.314;2022-10-26T03:55:55;12.00;99.90
14006;DHT22;7078;51.542;7.314;2022-10-26T03:58:20;12.00;99.90
14006;DHT22;7078;51.542;7.314;2022-10-26T04:00:46;12.00;99.90
14006;DHT22;7078;51.542;7.314;2022-10-26T04:03:12;12.00;99.90
14006;DHT22;7078;51.542;7.314;2022-10-26T04:05:37;12.00;99.90
14006;DHT22;7078;51.542;7.314;2022-10-26T04:08:03;12.00;99.90
14006;DHT22;7078;51.542;7.314;2022-10-26T04:10:29;12.00;99.90
14006;DHT22;7078;51.542;7.314;2022-10-26T04:12:55;12.10;99.90
14006;DHT22;7078;51.542;7.314;2022-10-26T04:15:23;12.10;99.90
14006;DHT22;7078;51.542;7.314;2022-10-26T04:17:55;12.10;99.90
14006;DHT22;7078;51.542;7.314;2022-10-26T04:20:20;12.10;99.90
14006;DHT22;7078;51.542;7.314;2022-10-26T04:22:46;12.10;99.90
14006;DHT22;7078;51.542;7.314;2022-10-26T04:25:11;12.20;99.90
14006;DHT22;7078;51.542;7.314;2022-10-26T04:27:37;12.20;99.90
14006;DHT22;7078;51.542;7.314;2022-10-26T04:30:03;12.30;99.90
14006;DHT22;7078;51.542;7.314;2022-10-26T04:32:32;12.30;99.90
14006;DHT22;7078;51.542;7.314;2022-10-26T04:34:57;12.30;99.90
14006;DHT22;7078;51.542;7.314;2022-10-26T04:37:23;12.40;99.90
14006;DHT22;7078;51.542;7.314;2022-10-26T04:39:48;12.40;99.90
14006;DHT22;7078;51.542;7.314;2022-10-26T04:42:14;12.50;99.90
14006;DHT22;7078;51.542;7.314;2022-10-26T04:44:39;12.50;99.90
14006;DHT22;7078;51.542;7.314;2022-10-26T04:47:05;12.60;99.90
14006;DHT22;7078;51.542;7.314;2022-10-26T04:49:30;12.60;99.90
14006;DHT22;7078;51.542;7.314;2022-10-26T04:51:56;12.60;99.90
14006;DHT22;7078;51.542;7.314;2022-10-26T04:54:21;12.50;99.90
14006;DHT22;7078;51.542;7.314;2022-10-26T04:56:47;12.50;99.90
14006;DHT22;7078;51.542;7.314;2022-10-26T04:59:13;12.50;99.90
14006;DHT22;7078;51.542;7.314;2022-10-26T05:01:38;12.50;99.90
14006;DHT22;7078;51.542;7.314;2022-10-26T05:04:04;12.50;99.90
14006;DHT22;7078;51.542;7.314;2022-10-26T05:06:29;12.60;99.90
14006;DHT22;7078;51.542;7.314;2022-10-26T05:08:55;12.70;99.90
14006;DHT22;7078;51.542;7.314;2022-10-26T05:11:20;12.80;99.90
14006;DHT22;7078;51.542;7.314;2022-10-26T05:13:46;13.00;99.90
14006;DHT22;7078;51.542;7.314;2022-10-26T05:16:13;13.10;99.90
14006;DHT22;7078;51.542;7.314;2022-10-26T05:18:40;13.30;99.90
14006;DHT22;7078;51.542;7.314;2022-10-26T05:21:06;13.50;99.90
14006;DHT22;7078;51.542;7.314;2022-10-26T05:23:31;13.60;99.90
14006;DHT22;7078;51.542;7.314;2022-10-26T05:25:57;13.70;99.90
14006;DHT22;7078;51.542;7.314;2022-10-26T05:28:22;13.80;99.90
14006;DHT22;7078;51.542;7.314;2022-10-26T05:30:48;13.90;99.90
14006;DHT22;7078;51.542;7.314;2022-10-26T05:33:13;13.90;99.90
14006;DHT22;7078;51.542;7.314;2022-10-26T05:35:39;14.00;99.90
14006;DHT22;7078;51.542;7.314;2022-10-26T05:38:10;14.00;99.90
14006;DHT22;7078;51.542;7.314;2022-10-26T05:40:36;14.10;99.90
14006;DHT22;7078;51.542;7.314;2022-10-26T05:43:02;14.20;99.90
14006;DHT22;7078;51.542;7.314;2022-10-26T05:45:28;14.10;99.90
14006;DHT22;7078;51.542;7.314;2022-10-26T05:47:54;14.20;99.90
14006;DHT22;7078;51.542;7.314;2022-10-26T05:50:20;14.20;99.90
14006;DHT22;7078;51.542;7.314;2022-10-26T05:52:46;14.30;99.90
14006;DHT22;7078;51.542;7.314;2022-10-26T05:55:14;14.30;99.90
14006;DHT22;7078;51.542;7.314;2022-10-26T05:57:40;14.30;99.90
14006;DHT22;7078;51.542;7.314;2022-10-26T06:00:18;14.30;99.90
14006;DHT22;7078;51.542;7.314;2022-10-26T06:05:50;14.40;99.90
14006;DHT22;7078;51.542;7.314;2022-10-26T06:08:17;14.40;99.90
14006;DHT22;7078;51.542;7.314;2022-10-26T06:10:43;14.50;99.90
14006;DHT22;7078;51.542;7.314;2022-10-26T06:13:08;14.50;99.90
14006;DHT22;7078;51.542;7.314;2022-10-26T06:15:40;14.50;99.90
14006;DHT22;7078;51.542;7.314;2022-10-26T06:18:46;14.50;99.90
14006;DHT22;7078;51.542;7.314;2022-10-26T06:24:18;14.50;99.90
14006;DHT22;7078;51.542;7.314;2022-10-26T06:27:00;14.50;99.90
14006;DHT22;7078;51.542;7.314;2022-10-26T06:29:42;14.50;99.90
14006;DHT22;7078;51.542;7.314;2022-10-26T06:32:09;14.50;99.90
14006;DHT22;7078;51.542;7.314;2022-10-26T06:34:36;14.50;99.90
14006;DHT22;7078;51.542;7.314;2022-10-26T06:37:03;14.50;99.90
14006;DHT22;7078;51.542;7.314;2022-10-26T06:39:33;14.50;99.90
14006;DHT22;7078;51.542;7.314;2022-10-26T06:42:00;14.60;99.90
14006;DHT22;7078;51.542;7.314;2022-10-26T06:44:26;14.60;99.90
14006;DHT22;7078;51.542;7.314;2022-10-26T06:47:06;14.70;99.90
14006;DHT22;7078;51.542;7.314;2022-10-26T06:54:45;14.70;99.90
14006;DHT22;7078;51.542;7.314;2022-10-26T06:57:13;14.80;99.90
14006;DHT22;7078;51.542;7.314;2022-10-26T06:59:43;14.80;99.90
14006;DHT22;7078;51.542;7.314;2022-10-26T07:02:13;14.80;99.90
14006;DHT22;7078;51.542;7.314;2022-10-26T07:04:40;14.80;99.90
14006;DHT22;7078;51.542;7.314;2022-10-26T07:07:08;14.80;99.90
14006;DHT22;7078;51.542;7.314;2022-10-26T07:09:35;14.90;99.90
14006;DHT22;7078;51.542;7.314;2022-10-26T07:12:01;14.90;99.90
14006;DHT22;7078;51.542;7.314;2022-10-26T07:14:26;15.00;99.90
14006;DHT22;7078;51.542;7.314;2022-10-26T07:16:52;15.00;99.90
14006;DHT22;7078;51.542;7.314;2022-10-26T07:19:18;15.00;99.90
14006;DHT22;7078;51.542;7.314;2022-10-26T07:21:44;15.10;99.90
14006;DHT22;7078;51.542;7.314;2022-10-26T07:24:10;15.20;99.90
14006;DHT22;7078;51.542;7.314;2022-10-26T07:26:35;15.20;99.90
14006;DHT22;7078;51.542;7.314;2022-10-26T07:29:01;15.20;99.90
14006;DHT22;7078;51.542;7.314;2022-10-26T07:31:26;15.30;99.90
14006;DHT22;7078;51.542;7.314;2022-10-26T07:33:55;15.30;99.90
14006;DHT22;7078;51.542;7.314;2022-10-26T07:36:20;15.40;99.90
14006;DHT22;7078;51.542;7.314;2022-10-26T07:38:46;15.40;99.90
14006;DHT22;7078;51.542;7.314;2022-10-26T07:41:11;15.40;99.90
14006;DHT22;7078;51.542;7.314;2022-10-26T07:43:38;15.50;99.90
14006;DHT22;7078;51.542;7.314;2022-10-26T07:46:04;15.60;99.90
14006;DHT22;7078;51.542;7.314;2022-10-26T07:48:29;15.60;99.90
14006;DHT22;7078;51.542;7.314;2022-10-26T07:50:55;15.70;99.90
14006;DHT22;7078;51.542;7.314;2022-10-26T07:53:20;15.70;99.90
14006;DHT22;7078;51.542;7.314;2022-10-26T07:55:54;15.80;99.90
14006;DHT22;7078;51.542;7.314;2022-10-26T07:58:21;15.90;99.90
14006;DHT22;7078;51.542;7.314;2022-10-26T08:00:49;16.00;99.90
14006;DHT22;7078;51.542;7.314;2022-10-26T08:03:15;16.00;99.90
14006;DHT22;7078;51.542;7.314;2022-10-26T08:05:41;16.10;99.90
14006;DHT22;7078;51.542;7.314;2022-10-26T08:08:06;16.20;99.90
14006;DHT22;7078;51.542;7.314;2022-10-26T08:10:32;16.20;99.90
14006;DHT22;7078;51.542;7.314;2022-10-26T08:12:57;16.20;99.90
14006;DHT22;7078;51.542;7.314;2022-10-26T08:15:23;16.20;99.90
14006;DHT22;7078;51.542;7.314;2022-10-26T08:17:48;16.20;99.90
14006;DHT22;7078;51.542;7.314;2022-10-26T08:20:14;16.20;99.90
14006;DHT22;7078;51.542;7.314;2022-10-26T08:22:39;16.30;99.90
14006;DHT22;7078;51.542;7.314;2022-10-26T08:25:05;16.40;99.90
14006;DHT22;7078;51.542;7.314;2022-10-26T08:27:31;16.50;99.90
14006;DHT22;7078;51.542;7.314;2022-10-26T08:29:56;16.60;99.90
14006;DHT22;7078;51.542;7.314;2022-10-26T08:32:22;16.70;99.90
14006;DHT22;7078;51.542;7.314;2022-10-26T08:34:47;16.80;99.90
14006;DHT22;7078;51.542;7.314;2022-10-26T08:37:13;16.90;99.90
14006;DHT22;7078;51.542;7.314;2022-10-26T08:39:38;17.00;99.90
14006;DHT22;7078;51.542;7.314;2022-10-26T08:42:16;17.20;99.90
14006;DHT22;7078;51.542;7.314;2022-10-26T08:44:47;17.30;99.90
14006;DHT22;7078;51.542;7.314;2022-10-26T08:47:20;17.40;99.90
14006;DHT22;7078;51.542;7.314;2022-10-26T08:50:03;17.40;99.90
14006;DHT22;7078;51.542;7.314;2022-10-26T08:52:37;17.50;99.90
14006;DHT22;7078;51.542;7.314;2022-10-26T08:55:13;17.50;99.90
14006;DHT22;7078;51.542;7.314;2022-10-26T08:57:41;17.60;99.90
14006;DHT22;7078;51.542;7.314;2022-10-26T09:00:21;17.60;99.90
14006;DHT22;7078;51.542;7.314;2022-10-26T09:02:50;17.70;99.90
14006;DHT22;7078;51.542;7.314;2022-10-26T09:05:40;17.70;99.90
14006;DHT22;7078;51.542;7.314;2022-10-26T09:10:57;17.80;99.90
14006;DHT22;7078;51.542;7.314;2022-10-26T09:16:18;17.80;99.90
14006;DHT22;7078;51.542;7.314;2022-10-26T09:19:00;17.90;99.90
14006;DHT22;7078;51.542;7.314;2022-10-26T09:21:46;17.90;99.90
14006;DHT22;7078;51.542;7.314;2022-10-26T09:24:28;18.00;99.90
14006;DHT22;7078;51.542;7.314;2022-10-26T09:29:35;18.00;99.90
14006;DHT22;7078;51.542;7.314;2022-10-26T09:32:03;17.90;99.90
14006;DHT22;7078;51.542;7.314;2022-10-26T09:34:42;17.90;99.90
14006;DHT22;7078;51.542;7.314;2022-10-26T09:37:30;17.90;99.90
14006;DHT22;7078;51.542;7.314;2022-10-26T09:40:23;17.90;99.90
14006;DHT22;7078;51.542;7.314;2022-10-26T09:42:57;17.90;99.90
14006;DHT22;7078;51.542;7.314;2022-10-26T09:47:56;18.00;99.90
14006;DHT22;7078;51.542;7.314;2022-10-26T09:50:34;18.10;99.90
14006;DHT22;7078;51.542;7.314;2022-10-26T09:53:00;18.20;99.90
14006;DHT22;7078;51.542;7.314;2022-10-26T09:55:26;18.40;99.90
14006;DHT22;7078;51.542;7.314;2022-10-26T09:57:55;18.40;99.90
14006;DHT22;7078;51.542;7.314;2022-10-26T10:00:23;18.50;99.90
14006;DHT22;7078;51.542;7.314;2022-10-26T10:02:54;18.60;99.90
14006;DHT22;7078;51.542;7.314;2022-10-26T10:05:32;18.70;99.90
14006;DHT22;7078;51.542;7.314;2022-10-26T10:08:20;18.70;99.90
14006;DHT22;7078;51.542;7.314;2022-10-26T10:11:08;18.80;99.90
14006;DHT22;7078;51.542;7.314;2022-10-26T10:13:39;18.90;99.90
14006;DHT22;7078;51.542;7.314;2022-10-26T10:16:05;18.90;99.90
14006;DHT22;7078;51.542;7.314;2022-10-26T10:18:33;18.80;99.90
14006;DHT22;7078;51.542;7.314;2022-10-26T10:21:00;18.60;99.90
14006;DHT22;7078;51.542;7.314;2022-10-26T10:23:32;18.50;99.90
14006;DHT22;7078;51.542;7.314;2022-10-26T10:26:06;18.40;99.90
14006;DHT22;7078;51.542;7.314;2022-10-26T10:28:33;18.40;99.90
14006;DHT22;7078;51.542;7.314;2022-10-26T10:31:01;18.40;99.90
14006;DHT22;7078;51.542;7.314;2022-10-26T10:33:40;18.50;99.90
14006;DHT22;7078;51.542;7.314;2022-10-26T10:36:19;18.60;99.90
14006;DHT22;7078;51.542;7.314;2022-10-26T10:38:47;18.70;99.90
14006;DHT22;7078;51.542;7.314;2022-10-26T10:41:19;18.80;99.90
14006;DHT22;7078;51.542;7.314;2022-10-26T10:43:55;18.90;99.90
14006;DHT22;7078;51.542;7.314;2022-10-26T10:46:24;19.00;99.90
14006;DHT22;7078;51.542;7.314;2022-10-26T10:49:08;18.90;99.90
14006;DHT22;7078;51.542;7.314;2022-10-26T10:51:41;19.00;99.90
14006;DHT22;7078;51.542;7.314;2022-10-26T10:54:22;19.10;99.90
14006;DHT22;7078;51.542;7.314;2022-10-26T10:57:24;19.10;99.90
14006;DHT22;7078;51.542;7.314;2022-10-26T11:00:07;19.30;99.90
14006;DHT22;7078;51.542;7.314;2022-10-26T11:08:10;19.40;99.90
14006;DHT22;7078;51.542;7.314;2022-10-26T11:10:51;19.40;99.90
14006;DHT22;7078;51.542;7.314;2022-10-26T11:13:25;19.40;99.90
14006;DHT22;7078;51.542;7.314;2022-10-26T11:15:59;19.40;99.90
14006;DHT22;7078;51.542;7.314;2022-10-26T11:21:01;19.70;99.90
14006;DHT22;7078;51.542;7.314;2022-10-26T11:23:51;19.60;99.90
14006;DHT22;7078;51.542;7.314;2022-10-26T11:26:23;19.60;99.90
14006;DHT22;7078;51.542;7.314;2022-10-26T11:28:57;19.60;99.90
14006;DHT22;7078;51.542;7.314;2022-10-26T11:31:30;19.60;99.90
14006;DHT22;7078;51.542;7.314;2022-10-26T11:36:49;19.60;99.90
14006;DHT22;7078;51.542;7.314;2022-10-26T11:39:22;19.60;99.90
14006;DHT22;7078;51.542;7.314;2022-10-26T11:42:02;19.70;99.90
14006;DHT22;7078;51.542;7.314;2022-10-26T11:44:45;19.60;99.90
14006;DHT22;7078;51.542;7.314;2022-10-26T11:47:18;19.50;99.90
14006;DHT22;7078;51.542;7.314;2022-10-26T11:50:07;19.60;99.90
14006;DHT22;7078;51.542;7.314;2022-10-26T11:52:44;19.50;99.90
14006;DHT22;7078;51.542;7.314;2022-10-26T11:55:11;19.40;99.90
14006;DHT22;7078;51.542;7.314;2022-10-26T11:57:37;19.60;99.90
14006;DHT22;7078;51.542;7.314;2022-10-26T12:00:21;19.60;99.90
14006;DHT22;7078;51.542;7.314;2022-10-26T12:02:55;19.70;99.90
14006;DHT22;7078;51.542;7.314;2022-10-26T12:08:25;19.70;99.90
14006;DHT22;7078;51.542;7.314;2022-10-26T12:11:08;19.70;99.90
14006;DHT22;7078;51.542;7.314;2022-10-26T12:13:56;19.70;99.90
14006;DHT22;7078;51.542;7.314;2022-10-26T12:19:30;19.80;99.90
14006;DHT22;7078;51.542;7.314;2022-10-26T12:21:58;19.80;99.90
14006;DHT22;7078;51.542;7.314;2022-10-26T12:24:27;19.80;99.90
14006;DHT22;7078;51.542;7.314;2022-10-26T12:26:54;19.80;99.90
14006;DHT22;7078;51.542;7.314;2022-10-26T12:29:27;19.80;99.90
14006;DHT22;7078;51.542;7.314;2022-10-26T12:31:53;19.80;99.90
14006;DHT22;7078;51.542;7.314;2022-10-26T12:39:39;20.00;99.90
14006;DHT22;7078;51.542;7.314;2022-10-26T12:47:03;19.80;99.90
14006;DHT22;7078;51.542;7.314;2022-10-26T12:49:57;19.80;99.90
14006;DHT22;7078;51.542;7.314;2022-10-26T12:55:22;19.90;99.90
14006;DHT22;7078;51.542;7.314;2022-10-26T13:00:26;19.90;99.90
14006;DHT22;7078;51.542;7.314;2022-10-26T13:05:59;19.90;99.90
14006;DHT22;7078;51.542;7.314;2022-10-26T13:08:26;20.00;99.90
14006;DHT22;7078;51.542;7.314;2022-10-26T13:11:29;20.10;99.90
14006;DHT22;7078;51.542;7.314;2022-10-26T13:13:58;20.20;99.90
14006;DHT22;7078;51.542;7.314;2022-10-26T13:16:26;20.30;99.90
14006;DHT22;7078;51.542;7.314;2022-10-26T13:18:52;20.30;99.90
14006;DHT22;7078;51.542;7.314;2022-10-26T13:21:21;20.40;99.90
14006;DHT22;7078;51.542;7.314;2022-10-26T13:26:20;20.50;99.90
14006;DHT22;7078;51.542;7.314;2022-10-26T13:28:50;20.40;99.90
14006;DHT22;7078;51.542;7.314;2022-10-26T13:34:14;20.50;99.90
14006;DHT22;7078;51.542;7.314;2022-10-26T13:37:20;20.50;99.90
14006;DHT22;7078;51.542;7.314;2022-10-26T13:39:48;20.40;99.90
14006;DHT22;7078;51.542;7.314;2022-10-26T13:42:17;20.40;99.90
14006;DHT22;7078;51.542;7.314;2022-10-26T13:47:35;20.30;99.90
14006;DHT22;7078;51.542;7.314;2022-10-26T13:50:07;20.30;99.90
14006;DHT22;7078;51.542;7.314;2022-10-26T13:52:40;20.30;99.90
14006;DHT22;7078;51.542;7.314;2022-10-26T13:58:13;20.50;99.90
14006;DHT22;7078;51.542;7.314;2022-10-26T14:03:40;20.60;99.90
14006;DHT22;7078;51.542;7.314;2022-10-26T14:06:15;20.60;99.90
14006;DHT22;7078;51.542;7.314;2022-10-26T14:08:43;20.50;99.90
14006;DHT22;7078;51.542;7.314;2022-10-26T14:11:13;20.50;99.90
14006;DHT22;7078;51.542;7.314;2022-10-26T14:13:40;20.50;99.90
14006;DHT22;7078;51.542;7.314;2022-10-26T14:16:07;20.30;99.90
14006;DHT22;7078;51.542;7.314;2022-10-26T14:18:33;20.30;99.90
14006;DHT22;7078;51.542;7.314;2022-10-26T14:21:02;20.20;99.90
14006;DHT22;7078;51.542;7.314;2022-10-26T14:23:36;20.30;99.90
14006;DHT22;7078;51.542;7.314;2022-10-26T14:28:56;20.40;99.90
14006;DHT22;7078;51.542;7.314;2022-10-26T14:33:49;20.30;99.90
14006;DHT22;7078;51.542;7.314;2022-10-26T14:36:16;20.20;99.90
14006;DHT22;7078;51.542;7.314;2022-10-26T14:38:48;20.20;99.90
14006;DHT22;7078;51.542;7.314;2022-10-26T14:41:16;20.20;99.90
14006;DHT22;7078;51.542;7.314;2022-10-26T14:43:43;20.20;99.90
14006;DHT22;7078;51.542;7.314;2022-10-26T14:46:14;20.20;99.90
14006;DHT22;7078;51.542;7.314;2022-10-26T14:51:18;20.20;99.90
14006;DHT22;7078;51.542;7.314;2022-10-26T14:53:50;20.10;99.90
14006;DHT22;7078;51.542;7.314;2022-10-26T14:56:39;20.10;99.90
14006;DHT22;7078;51.542;7.314;2022-10-26T14:59:29;20.00;99.90
14006;DHT22;7078;51.542;7.314;2022-10-26T15:02:14;19.90;99.90
14006;DHT22;7078;51.542;7.314;2022-10-26T15:04:55;19.80;99.90
14006;DHT22;7078;51.542;7.314;2022-10-26T15:07:22;19.80;99.90
14006;DHT22;7078;51.542;7.314;2022-10-26T15:09:51;19.80;99.90
14006;DHT22;7078;51.542;7.314;2022-10-26T15:12:36;19.70;99.90
14006;DHT22;7078;51.542;7.314;2022-10-26T15:17:41;19.60;99.90
14006;DHT22;7078;51.542;7.314;2022-10-26T15:20:22;19.50;99.90
14006;DHT22;7078;51.542;7.314;2022-10-26T15:22:49;19.50;99.90
14006;DHT22;7078;51.542;7.314;2022-10-26T15:25:27;19.40;99.90
14006;DHT22;7078;51.542;7.314;2022-10-26T15:27:53;19.40;99.90
14006;DHT22;7078;51.542;7.314;2022-10-26T15:30:24;19.40;99.90
14006;DHT22;7078;51.542;7.314;2022-10-26T15:32:55;19.30;99.90
14006;DHT22;7078;51.542;7.314;2022-10-26T15:35:26;19.30;99.90
14006;DHT22;7078;51.542;7.314;2022-10-26T15:37:53;19.30;99.90
14006;DHT22;7078;51.542;7.314;2022-10-26T15:40:20;19.20;99.90
14006;DHT22;7078;51.542;7.314;2022-10-26T15:42:53;19.10;99.90
14006;DHT22;7078;51.542;7.314;2022-10-26T15:45:28;19.10;99.90
14006;DHT22;7078;51.542;7.314;2022-10-26T15:47:56;19.00;99.90
14006;DHT22;7078;51.542;7.314;2022-10-26T15:50:24;18.80;99.90
14006;DHT22;7078;51.542;7.314;2022-10-26T15:52:57;18.80;99.90
14006;DHT22;7078;51.542;7.314;2022-10-26T15:55:24;18.70;99.90
14006;DHT22;7078;51.542;7.314;2022-10-26T15:57:49;18.60;99.90
14006;DHT22;7078;51.542;7.314;2022-10-26T16:00:16;18.60;99.90
14006;DHT22;7078;51.542;7.314;2022-10-26T16:02:43;18.50;99.90
14006;DHT22;7078;51.542;7.314;2022-10-26T16:05:11;18.30;99.90
14006;DHT22;7078;51.542;7.314;2022-10-26T16:07:37;18.20;99.90
14006;DHT22;7078;51.542;7.314;2022-10-26T16:10:04;18.10;99.90
14006;DHT22;7078;51.542;7.314;2022-10-26T16:12:30;18.10;99.90
14006;DHT22;7078;51.542;7.314;2022-10-26T16:14:55;18.00;99.90
14006;DHT22;7078;51.542;7.314;2022-10-26T16:17:21;17.90;99.90
14006;DHT22;7078;51.542;7.314;2022-10-26T16:19:46;17.90;99.90
14006;DHT22;7078;51.542;7.314;2022-10-26T16:22:12;17.80;99.90
14006;DHT22;7078;51.542;7.314;2022-10-26T16:24:37;17.80;99.90
14006;DHT22;7078;51.542;7.314;2022-10-26T16:27:03;17.70;99.90
14006;DHT22;7078;51.542;7.314;2022-10-26T16:29:29;17.60;99.90
14006;DHT22;7078;51.542;7.314;2022-10-26T16:31:54;17.60;99.90
14006;DHT22;7078;51.542;7.314;2022-10-26T16:34:20;17.60;99.90
14006;DHT22;7078;51.542;7.314;2022-10-26T16:36:45;17.50;99.90
14006;DHT22;7078;51.542;7.314;2022-10-26T16:39:11;17.40;99.90
14006;DHT22;7078;51.542;7.314;2022-10-26T16:41:37;17.40;99.90
14006;DHT22;7078;51.542;7.314;2022-10-26T16:44:02;17.30;99.90
14006;DHT22;7078;51.542;7.314;2022-10-26T16:46:28;17.30;99.90
14006;DHT22;7078;51.542;7.314;2022-10-26T16:48:54;17.30;99.90
14006;DHT22;7078;51.542;7.314;2022-10-26T16:51:22;17.10;99.90
14006;DHT22;7078;51.542;7.314;2022-10-26T16:53:50;17.10;99.90
14006;DHT22;7078;51.542;7.314;2022-10-26T16:56:21;17.10;99.90
14006;DHT22;7078;51.542;7.314;2022-10-26T16:58:47;17.10;99.90
14006;DHT22;7078;51.542;7.314;2022-10-26T17:01:14;17.10;99.90
14006;DHT22;7078;51.542;7.314;2022-10-26T17:03:47;17.10;99.90
14006;DHT22;7078;51.542;7.314;2022-10-26T17:06:13;17.10;99.90
14006;DHT22;7078;51.542;7.314;2022-10-26T17:08:39;17.10;99.90
14006;DHT22;7078;51.542;7.314;2022-10-26T17:11:11;17.10;99.90
14006;DHT22;7078;51.542;7.314;2022-10-26T17:13:38;17.10;99.90
14006;DHT22;7078;51.542;7.314;2022-10-26T17:16:06;17.10;99.90
14006;DHT22;7078;51.542;7.314;2022-10-26T17:18:32;17.10;99.90
14006;DHT22;7078;51.542;7.314;2022-10-26T17:20:58;17.20;99.90
14006;DHT22;7078;51.542;7.314;2022-10-26T17:23:23;17.10;99.90
14006;DHT22;7078;51.542;7.314;2022-10-26T17:25:49;17.20;99.90
14006;DHT22;7078;51.542;7.314;2022-10-26T17:28:15;17.20;99.90
14006;DHT22;7078;51.542;7.314;2022-10-26T17:30:40;17.30;99.90
14006;DHT22;7078;51.542;7.314;2022-10-26T17:33:06;17.30;99.90
14006;DHT22;7078;51.542;7.314;2022-10-26T17:35:32;17.50;99.90
14006;DHT22;7078;51.542;7.314;2022-10-26T17:37:58;17.40;99.90
14006;DHT22;7078;51.542;7.314;2022-10-26T17:40:23;17.40;99.90
14006;DHT22;7078;51.542;7.314;2022-10-26T17:42:49;17.40;99.90